Time;durP1;ratioP1;P1;durP2;ratioP2;P2;SDS_P1;SDS_P2;PMS_P1;PMS_P2;Temp;Humidity;BMP_temperature;BMP_pressure;BME280_temperature;BME280_humidity;BME280_pressure;Samples;Min_cycle;Max_cycle;Signal;HPM_P1;HPM_P2
2022/09/16 00:00:33;;;;;;;6.40;1.70;;;;;;;16.76;56.91;101000.38;4871852;28;118161;-70
2022/09/16 00:03:01;;;;;;;5.28;1.58;;;;;;;16.73;56.98;101007.66;4869647;28;124097;-69
2022/09/16 00:05:28;;;;;;;3.65;1.40;;;;;;;16.71;56.85;101008.72;4869258;28;124208;-69
2022/09/16 00:07:55;;;;;;;4.55;1.70;;;;;;;16.69;57.14;101010.66;4871561;28;119362;-69
2022/09/16 00:10:23;;;;;;;6.47;1.48;;;;;;;16.66;57.02;101005.50;4874082;28;118821;-70
2022/09/16 00:12:50;;;;;;;4.78;1.70;;;;;;;16.64;57.17;101007.44;4867336;28;124892;-70
2022/09/16 00:15:17;;;;;;;5.97;1.70;;;;;;;16.60;57.38;101011.28;4884197;28;122795;-69
2022/09/16 00:17:44;;;;;;;3.03;1.50;;;;;;;16.58;57.29;101013.19;4870533;28;120167;-69
2022/09/16 00:20:12;;;;;;;3.65;1.45;;;;;;;16.55;57.17;101020.44;4872998;28;120026;-69
2022/09/16 00:22:39;;;;;;;5.90;1.67;;;;;;;16.52;57.63;101012.66;4870451;28;124372;-69
2022/09/16 00:25:06;;;;;;;3.95;1.58;;;;;;;16.50;57.54;101011.91;4869609;28;124299;-70
2022/09/16 00:27:33;;;;;;;5.72;1.40;;;;;;;16.49;57.83;101010.16;4869534;28;119462;-70
2022/09/16 00:30:00;;;;;;;5.38;1.60;;;;;;;16.50;57.90;101006.56;4870307;28;118487;-69
2022/09/16 00:32:27;;;;;;;8.48;1.52;;;;;;;16.52;57.86;101003.78;4871566;28;124417;-70
2022/09/16 00:34:54;;;;;;;7.32;1.88;;;;;;;16.52;57.94;100999.28;4874484;28;123340;-68
2022/09/16 00:37:22;;;;;;;6.22;1.58;;;;;;;16.54;57.82;101002.69;4871436;28;119907;-70
2022/09/16 00:39:49;;;;;;;2.67;1.42;;;;;;;16.55;57.69;100993.69;4871809;28;119185;-69
2022/09/16 00:42:18;;;;;;;3.22;1.25;;;;;;;16.58;57.88;100994.50;4867399;28;123990;-70
2022/09/16 00:44:59;;;;;;;7.05;1.60;;;;;;;16.57;57.99;101000.78;4858567;28;123447;-69
2022/09/16 00:47:39;;;;;;;3.10;1.15;;;;;;;16.59;57.85;101004.19;4868094;28;119910;-70
2022/09/16 00:50:15;;;;;;;4.90;1.45;;;;;;;16.59;57.79;100998.84;4868327;28;119324;-69
2022/09/16 00:52:42;;;;;;;3.83;1.48;;;;;;;16.59;57.99;101004.19;4866834;28;124814;-70
2022/09/16 00:55:15;;;;;;;6.20;1.88;;;;;;;16.57;57.92;101006.97;4867054;28;122802;-70
2022/09/16 00:57:43;;;;;;;4.90;1.48;;;;;;;16.59;57.90;100996.19;4867595;28;119355;-70
2022/09/16 01:00:12;;;;;;;6.60;1.85;;;;;;;16.58;57.86;100994.50;4869200;28;117766;-69
2022/09/16 01:02:41;;;;;;;7.82;1.75;;;;;;;16.58;57.93;100997.16;4871971;28;124001;-69
2022/09/16 01:05:15;;;;;;;6.97;1.70;;;;;;;16.57;58.09;100996.28;4863890;28;123844;-69
2022/09/16 01:07:44;;;;;;;6.47;1.88;;;;;;;16.58;57.98;100986.47;4867922;28;120168;-70
2022/09/16 01:10:14;;;;;;;6.10;2.00;;;;;;;16.59;58.07;100982.81;4868075;28;121626;-69
2022/09/16 01:12:48;;;;;;;6.63;1.80;;;;;;;16.58;58.06;100986.47;4867030;28;124084;-69
2022/09/16 01:15:16;;;;;;;7.27;2.37;;;;;;;16.59;58.03;100988.16;4869277;28;123660;-70
2022/09/16 01:18:17;;;;;;;5.65;1.60;;;;;;;16.58;57.93;100986.47;4869567;28;119878;-70
2022/09/16 01:21:15;;;;;;;5.80;1.75;;;;;;;16.58;57.94;100997.16;4866899;28;119381;-69
2022/09/16 01:24:09;;;;;;;6.38;1.73;;;;;;;16.55;58.07;100993.69;4866074;28;124250;-70
2022/09/16 01:27:05;;;;;;;7.22;1.92;;;;;;;16.53;58.02;100995.63;4866895;28;123628;-69
2022/09/16 01:29:45;;;;;;;5.68;1.85;;;;;;;16.54;57.96;100992.00;4862015;28;118917;-69
2022/09/16 01:32:22;;;;;;;4.43;1.77;;;;;;;16.54;58.15;100997.34;4865631;28;118718;-70
2022/09/16 01:35:01;;;;;;;5.25;1.67;;;;;;;16.55;58.16;100993.69;4864647;28;123857;-70
2022/09/16 01:37:56;;;;;;;6.43;2.00;;;;;;;16.59;58.22;100993.50;4883042;28;124479;-69
2022/09/16 01:40:46;;;;;;;3.95;1.65;;;;;;;16.59;58.00;100993.50;4868733;28;119360;-69
2022/09/16 01:43:49;;;;;;;5.60;1.95;;;;;;;16.60;58.01;100984.53;4868602;28;119172;-69
2022/09/16 01:47:20;;;;;;;7.03;1.88;;;;;;;16.59;57.90;100994.34;4867602;28;123941;-69
2022/09/16 01:50:06;;;;;;;4.80;1.88;;;;;;;16.60;57.96;100995.22;4828825;29;124637;-70
2022/09/16 01:52:42;;;;;;;3.72;1.67;;;;;;;16.59;58.00;100993.50;4825705;29;119266;-69
2022/09/16 01:55:19;;;;;;;7.38;2.20;;;;;;;16.57;58.04;100992.75;4856173;28;118944;-69
2022/09/16 01:57:52;;;;;;;6.13;2.00;;;;;;;16.58;58.11;100997.16;4865731;28;124022;-69
2022/09/16 02:00:19;;;;;;;6.15;2.30;;;;;;;16.57;57.95;100990.94;4866964;28;125407;-70
2022/09/16 02:02:55;;;;;;;10.55;2.65;;;;;;;16.57;57.99;101000.78;4871415;28;120130;-69
2022/09/16 02:05:27;;;;;;;6.25;2.25;;;;;;;16.57;58.14;100998.09;4865500;28;120431;-70
2022/09/16 02:08:01;;;;;;;6.35;2.10;;;;;;;16.57;58.09;100990.09;4870205;28;124155;-69
2022/09/16 02:10:34;;;;;;;8.90;2.10;;;;;;;16.55;58.12;100999.06;4881712;28;123984;-70
2022/09/16 02:13:24;;;;;;;6.65;2.22;;;;;;;16.55;58.16;100999.06;4868254;28;119590;-70
2022/09/16 02:15:54;;;;;;;4.07;1.88;;;;;;;16.54;58.19;100997.34;4876070;28;120525;-69
2022/09/16 02:18:27;;;;;;;7.60;1.80;;;;;;;16.54;58.17;101000.03;4872942;28;123969;-70
2022/09/16 02:20:56;;;;;;;5.25;2.00;;;;;;;16.55;58.14;101004.41;4869015;28;123930;-70
2022/09/16 02:23:28;;;;;;;8.15;2.08;;;;;;;16.53;58.29;101000.97;4882861;28;118717;-70
2022/09/16 02:25:56;;;;;;;5.55;1.80;;;;;;;16.50;58.33;100990.50;4872006;28;118604;-70
2022/09/16 02:28:33;;;;;;;4.50;1.70;;;;;;;16.45;58.54;100981.94;4869169;28;123613;-70
2022/09/16 02:31:05;;;;;;;6.75;2.13;;;;;;;16.41;58.64;100985.78;4869696;28;123204;-70
2022/09/16 02:33:47;;;;;;;6.53;2.08;;;;;;;16.37;58.74;100994.97;4868455;28;118839;-70
2022/09/16 02:36:20;;;;;;;6.80;2.00;;;;;;;16.35;58.92;100984.38;4868937;28;120052;-70
2022/09/16 02:38:53;;;;;;;9.00;2.08;;;;;;;16.33;58.99;100994.31;4884696;28;123688;-70
2022/09/16 02:41:20;;;;;;;7.97;2.20;;;;;;;16.33;59.02;100990.75;4867437;28;124178;-70
2022/09/16 02:43:47;;;;;;;6.70;1.83;;;;;;;16.31;59.16;100982.88;4872183;28;119155;-70
2022/09/16 02:46:42;;;;;;;5.10;1.95;;;;;;;16.30;59.14;100985.63;4868973;28;119526;-70
2022/09/16 02:49:25;;;;;;;4.73;2.20;;;;;;;16.32;59.25;100981.03;4882182;28;123519;-70
2022/09/16 02:51:55;;;;;;;10.73;2.90;;;;;;;16.31;59.39;100985.53;4869742;28;123718;-70
2022/09/16 02:54:28;;;;;;;9.27;2.50;;;;;;;16.32;59.30;100981.03;4868670;28;120310;-70
2022/09/16 02:56:56;;;;;;;10.77;2.50;;;;;;;16.30;59.26;100982.97;4832255;28;1104207;-70
2022/09/16 02:59:24;;;;;;;6.32;2.40;;;;;;;16.29;59.53;100989.25;4870126;28;124843;-70
2022/09/16 03:01:51;;;;;;;6.03;2.50;;;;;;;16.27;59.42;100988.50;4886926;28;124458;-70
2022/09/16 03:04:19;;;;;;;5.60;2.60;;;;;;;16.27;59.40;100977.81;4872078;28;119020;-70
2022/09/16 03:06:47;;;;;;;12.52;2.42;;;;;;;16.27;59.43;100980.50;4859036;28;117848;-70
2022/09/16 03:09:17;;;;;;;8.63;2.83;;;;;;;16.25;59.35;100977.06;4871965;28;125116;-70
2022/09/16 03:12:12;;;;;;;6.40;2.90;;;;;;;16.19;59.30;100982.81;4871075;28;124693;-70
2022/09/16 03:15:05;;;;;;;6.80;3.08;;;;;;;16.13;59.33;100976.91;4872635;28;120215;-70
2022/09/16 03:17:57;;;;;;;7.50;3.17;;;;;;;16.09;59.26;100975.41;4873912;28;118962;-70
2022/09/16 03:20:47;;;;;;;5.93;2.80;;;;;;;16.08;59.52;100979.03;4884863;28;123455;-71
2022/09/16 03:23:36;;;;;;;7.32;2.95;;;;;;;16.00;59.42;100968.00;4866869;28;124268;-70
2022/09/16 03:26:15;;;;;;;8.18;2.53;;;;;;;15.97;59.27;100970.88;4866234;28;119197;-70
2022/09/16 03:29:06;;;;;;;8.85;3.20;;;;;;;15.93;59.43;100970.22;4868158;28;119198;-71
2022/09/16 03:31:44;;;;;;;5.03;2.75;;;;;;;15.90;59.47;100974.94;4885096;28;123858;-70
2022/09/16 03:34:11;;;;;;;8.57;2.85;;;;;;;15.87;59.46;100969.78;4871339;28;123908;-70
2022/09/16 03:36:45;;;;;;;8.52;3.10;;;;;;;15.84;59.89;100970.84;4872473;28;119514;-70
2022/09/16 03:39:13;;;;;;;8.25;3.13;;;;;;;15.84;59.64;100972.63;4885342;28;119348;-70
2022/09/16 03:41:40;;;;;;;8.98;2.90;;;;;;;15.83;59.64;100981.63;4872271;28;126199;-70
2022/09/16 03:44:07;;;;;;;8.20;2.90;;;;;;;15.80;59.69;100979.13;4872781;28;123786;-70
2022/09/16 03:46:34;;;;;;;8.68;2.88;;;;;;;15.79;59.69;100982.78;4872491;28;121146;-70
2022/09/16 03:49:02;;;;;;;7.10;2.67;;;;;;;15.76;59.98;100978.47;4868991;28;119812;-71
2022/09/16 03:51:29;;;;;;;8.70;3.13;;;;;;;15.75;59.97;100972.28;4870469;28;124098;-70
2022/09/16 03:53:56;;;;;;;9.23;2.88;;;;;;;15.75;59.95;100977.63;4872371;28;123626;-70
2022/09/16 03:56:23;;;;;;;10.55;3.05;;;;;;;15.73;59.95;100968.84;4869283;28;119363;-70
2022/09/16 03:58:51;;;;;;;10.18;3.20;;;;;;;15.72;59.92;100967.09;4852612;28;117832;-70
2022/09/16 04:01:18;;;;;;;10.75;2.97;;;;;;;15.70;60.02;100963.66;4871595;28;125077;-70
2022/09/16 04:03:45;;;;;;;7.78;2.63;;;;;;;15.69;59.96;100967.31;4871715;28;123843;-70
2022/09/16 04:06:12;;;;;;;8.60;2.50;;;;;;;15.68;59.90;100970.94;4869931;28;119140;-70
2022/09/16 04:08:40;;;;;;;6.13;2.45;;;;;;;15.66;60.04;100967.50;4872612;28;119672;-70
2022/09/16 04:11:07;;;;;;;7.85;2.67;;;;;;;15.66;60.19;100970.16;4869257;28;123573;-70
2022/09/16 04:13:35;;;;;;;7.90;2.63;;;;;;;15.65;60.33;100971.16;4870378;28;123616;-71
2022/09/16 04:16:03;;;;;;;7.13;2.60;;;;;;;15.64;60.29;100964.06;4871746;28;123960;-70
2022/09/16 04:18:32;;;;;;;4.70;2.40;;;;;;;15.63;60.57;100967.69;4870646;28;118711;-70
2022/09/16 04:21:01;;;;;;;5.35;2.03;;;;;;;15.63;60.46;100962.34;4869670;28;123200;-70
2022/09/16 04:23:29;;;;;;;4.97;2.20;;;;;;;15.63;60.53;100961.50;4869710;28;124628;-70
2022/09/16 04:26:01;;;;;;;8.63;2.20;;;;;;;15.63;60.49;100962.34;4869485;28;119813;-70
2022/09/16 04:28:32;;;;;;;7.55;2.15;;;;;;;15.65;60.54;100971.16;4869875;28;119258;-70
2022/09/16 04:31:04;;;;;;;5.78;2.00;;;;;;;15.64;60.56;100972.09;4868691;28;124135;-70
2022/09/16 04:33:34;;;;;;;4.28;2.17;;;;;;;15.64;60.58;100968.56;4869766;28;124230;-70
2022/09/16 04:36:12;;;;;;;6.43;2.10;;;;;;;15.62;60.45;100971.31;4868663;28;122807;-70
2022/09/16 04:38:41;;;;;;;7.32;1.92;;;;;;;15.63;60.60;100973.03;4868282;28;119835;-70
2022/09/16 04:41:14;;;;;;;5.50;1.90;;;;;;;15.62;60.56;100974.00;4874092;28;123876;-70
2022/09/16 04:43:41;;;;;;;4.60;1.83;;;;;;;15.62;60.49;100970.47;4869093;28;126937;-71
2022/09/16 04:46:08;;;;;;;5.03;2.22;;;;;;;15.61;60.64;100974.94;4866707;28;119216;-70
2022/09/16 04:48:35;;;;;;;6.20;1.80;;;;;;;15.60;60.73;100973.25;4881509;28;118185;-70
2022/09/16 04:51:05;;;;;;;7.10;2.05;;;;;;;15.61;60.60;100969.59;4867177;28;123974;-70
2022/09/16 04:53:33;;;;;;;5.25;2.05;;;;;;;15.61;60.71;100972.28;4878230;28;125137;-70
2022/09/16 04:56:07;;;;;;;5.70;1.65;;;;;;;15.61;60.64;100990.97;4883459;28;119373;-70
2022/09/16 04:58:34;;;;;;;4.13;1.60;;;;;;;15.61;60.59;100980.28;4869429;28;119498;-70
2022/09/16 05:01:06;;;;;;;3.47;1.90;;;;;;;15.59;60.69;100982.19;4867258;28;123393;-70
2022/09/16 05:03:33;;;;;;;6.97;1.60;;;;;;;15.58;60.67;100981.34;4869038;28;123917;-71
2022/09/16 05:06:22;;;;;;;4.45;1.98;;;;;;;15.57;60.94;100984.09;4869185;28;119312;-70
2022/09/16 05:08:50;;;;;;;5.78;1.95;;;;;;;15.55;60.79;100964.66;4870884;28;119411;-70
2022/09/16 05:11:26;;;;;;;4.85;1.88;;;;;;;15.55;60.80;100964.66;4868547;28;123994;-70
2022/09/16 05:13:57;;;;;;;6.25;1.77;;;;;;;15.54;60.85;100950.47;4866295;28;123947;-70
2022/09/16 05:16:24;;;;;;;4.88;1.83;;;;;;;15.55;61.00;100948.66;4866888;28;119325;-70
2022/09/16 05:18:55;;;;;;;3.65;1.75;;;;;;;15.57;61.18;100957.41;4884074;28;117759;-69
2022/09/16 05:21:24;;;;;;;5.25;1.63;;;;;;;15.59;61.08;100955.50;4866099;28;122782;-69
2022/09/16 05:23:51;;;;;;;3.55;1.80;;;;;;;15.61;61.21;100960.75;4867548;28;124228;-70
2022/09/16 05:26:25;;;;;;;5.82;2.05;;;;;;;15.61;61.16;100958.91;4867196;28;120227;-71
2022/09/16 05:28:53;;;;;;;5.45;1.88;;;;;;;15.62;61.34;100955.31;4870570;28;120091;-71
2022/09/16 05:31:29;;;;;;;4.63;1.90;;;;;;;15.63;61.17;100962.34;4868637;28;124432;-71
2022/09/16 05:34:10;;;;;;;6.15;1.92;;;;;;;15.65;61.19;100957.78;4869112;28;124356;-71
2022/09/16 05:36:38;;;;;;;5.57;1.90;;;;;;;15.67;61.23;100958.56;4884204;28;119643;-71
2022/09/16 05:39:05;;;;;;;3.45;1.42;;;;;;;15.69;61.13;100959.31;4887736;28;117936;-71
2022/09/16 05:41:56;;;;;;;4.25;1.70;;;;;;;15.70;61.25;100958.34;4867789;28;123867;-71
2022/09/16 05:44:24;;;;;;;3.53;1.70;;;;;;;15.73;61.20;100968.84;4873479;28;123799;-71
2022/09/16 05:46:52;;;;;;;5.25;1.55;;;;;;;15.75;61.26;100969.63;4885363;28;118773;-71
2022/09/16 05:49:19;;;;;;;7.43;1.75;;;;;;;15.76;61.20;100968.66;4886615;28;118749;-71
2022/09/16 05:51:47;;;;;;;4.50;1.80;;;;;;;15.79;61.18;100974.78;4871487;28;124438;-71
2022/09/16 05:54:17;;;;;;;4.18;1.40;;;;;;;15.77;61.17;100975.72;4873200;28;124268;-71
2022/09/16 05:56:45;;;;;;;4.40;1.73;;;;;;;15.79;61.25;100988.13;4868393;28;119552;-71
2022/09/16 05:59:13;;;;;;;4.45;1.73;;;;;;;15.77;61.17;100981.06;4872221;28;117945;-71
2022/09/16 06:01:40;;;;;;;3.33;1.60;;;;;;;15.78;61.30;100981.91;4873255;28;123803;-71
2022/09/16 06:04:12;;;;;;;5.03;1.55;;;;;;;15.77;61.32;100986.38;4872411;28;123310;-71
2022/09/16 06:06:41;;;;;;;3.78;1.48;;;;;;;15.79;61.20;100991.63;4870742;28;119425;-71
2022/09/16 06:09:15;;;;;;;6.00;1.63;;;;;;;15.77;61.21;100997.06;4873063;28;119594;-71
2022/09/16 06:11:45;;;;;;;4.82;1.55;;;;;;;15.77;61.29;100997.06;4881047;28;123809;-71
2022/09/16 06:14:14;;;;;;;2.80;1.45;;;;;;;15.77;61.32;100997.06;4872698;28;123661;-71
2022/09/16 06:16:41;;;;;;;2.75;1.45;;;;;;;15.76;61.33;100992.72;4870860;28;120893;-71
2022/09/16 06:19:11;;;;;;;6.25;1.80;;;;;;;15.76;61.37;100994.50;4871707;28;119697;-71
2022/09/16 06:21:40;;;;;;;4.80;1.50;;;;;;;15.76;61.51;100992.72;4871883;28;124558;-71
2022/09/16 06:24:07;;;;;;;3.75;1.60;;;;;;;15.81;61.48;101002.22;4871068;28;124399;-71
2022/09/16 06:26:37;;;;;;;7.00;1.60;;;;;;;15.83;61.52;100994.97;4870931;28;119310;-71
2022/09/16 06:29:05;;;;;;;3.25;1.55;;;;;;;15.86;61.63;100994.75;4870236;28;119160;-71
2022/09/16 06:31:33;;;;;;;6.95;1.65;;;;;;;15.89;61.72;100994.56;4869539;28;123326;-70
2022/09/16 06:34:00;;;;;;;2.83;1.30;;;;;;;15.91;61.52;101003.34;4871544;28;123621;-70
2022/09/16 06:36:33;;;;;;;3.08;1.48;;;;;;;15.96;61.73;101001.22;4870962;28;119760;-71
2022/09/16 06:39:00;;;;;;;4.22;1.52;;;;;;;16.06;61.72;101002.31;4871589;28;118974;-70
2022/09/16 06:41:27;;;;;;;3.15;1.30;;;;;;;16.12;61.79;100996.59;4870821;28;124098;-70
2022/09/16 06:43:54;;;;;;;4.10;1.27;;;;;;;16.18;61.62;101005.16;4882606;28;123417;-70
2022/09/16 06:46:24;;;;;;;2.63;1.05;;;;;;;16.23;61.16;101008.38;4870865;28;119319;-70
2022/09/16 06:48:57;;;;;;;3.90;1.00;;;;;;;16.24;61.29;101016.31;4873228;28;119975;-70
2022/09/16 06:51:31;;;;;;;1.85;1.00;;;;;;;16.26;61.03;101013.53;4871052;28;123855;-70
2022/09/16 06:54:04;;;;;;;2.78;1.00;;;;;;;16.27;60.85;101012.56;4872326;28;124131;-70
2022/09/16 06:56:34;;;;;;;5.15;1.30;;;;;;;16.28;61.10;101016.97;4886526;28;118328;-70
2022/09/16 06:59:02;;;;;;;4.72;0.85;;;;;;;16.32;60.64;101013.13;4871634;28;119591;-70
2022/09/16 07:01:30;;;;;;;2.10;0.90;;;;;;;16.30;60.46;101020.38;4871414;28;124145;-69
2022/09/16 07:04:02;;;;;;;4.20;1.08;;;;;;;16.27;60.17;101013.41;4869206;28;123850;-70
2022/09/16 07:06:31;;;;;;;2.88;1.00;;;;;;;16.25;60.12;101017.16;4868784;28;120195;-71
2022/09/16 07:09:18;;;;;;;3.45;1.17;;;;;;;16.24;60.22;101015.47;4871360;28;120288;-71
2022/09/16 07:11:45;;;;;;;1.48;0.80;;;;;;;16.21;59.96;101019.16;4870656;28;123874;-72
2022/09/16 07:14:12;;;;;;;5.88;0.98;;;;;;;16.19;60.13;101022.91;4872887;28;124153;-71
2022/09/16 07:16:39;;;;;;;2.22;0.80;;;;;;;16.17;59.98;101024.84;4868539;28;118778;-71
2022/09/16 07:19:06;;;;;;;2.22;1.00;;;;;;;16.15;60.05;101017.75;4869349;28;119640;-71
2022/09/16 07:21:33;;;;;;;2.63;0.80;;;;;;;16.13;59.90;101030.38;4868783;28;123183;-71
2022/09/16 07:24:01;;;;;;;1.98;1.00;;;;;;;16.15;60.00;101012.41;4871401;28;123670;-71
2022/09/16 07:26:31;;;;;;;4.55;1.10;;;;;;;16.21;60.31;101015.66;4866279;28;119496;-72
2022/09/16 07:29:01;;;;;;;2.97;1.10;;;;;;;16.29;60.72;101016.88;4868263;28;118073;-71
2022/09/16 07:31:33;;;;;;;5.15;1.10;;;;;;;16.43;60.84;101025.78;4883591;28;122987;-71
2022/09/16 07:34:01;;;;;;;4.80;1.20;;;;;;;16.59;60.92;101014.91;4866488;28;123956;-71
2022/09/16 07:36:35;;;;;;;1.77;1.10;;;;;;;16.75;60.80;101018.25;4883140;28;120143;-71
2022/09/16 07:39:03;;;;;;;3.80;1.13;;;;;;;16.90;60.66;101014.56;4882766;28;117585;-72
2022/09/16 07:41:39;;;;;;;3.20;1.55;;;;;;;17.07;60.70;101001.84;4868482;28;123507;-72
2022/09/16 07:44:10;;;;;;;3.30;1.30;;;;;;;17.23;60.46;101010.47;4869667;28;123679;-72
2022/09/16 07:46:37;;;;;;;3.75;1.13;;;;;;;17.40;60.33;101011.13;4867450;28;118514;-71
2022/09/16 07:49:06;;;;;;;4.07;1.38;;;;;;;17.53;60.16;101006.59;4869444;28;119301;-71
2022/09/16 07:51:34;;;;;;;4.07;1.33;;;;;;;17.66;59.96;101010.09;4865369;28;124658;-71
2022/09/16 07:54:04;;;;;;;3.67;1.10;;;;;;;17.83;59.98;101013.38;4869109;28;123464;-71
2022/09/16 07:56:34;;;;;;;3.55;1.63;;;;;;;17.99;60.04;101016.69;4868177;28;120070;-71
2022/09/16 07:59:03;;;;;;;2.83;1.20;;;;;;;18.16;59.67;101017.25;4867585;28;119337;-71
2022/09/16 08:01:30;;;;;;;3.17;1.20;;;;;;;18.33;59.12;101022.22;4867484;28;124563;-71
2022/09/16 08:03:58;;;;;;;4.68;1.45;;;;;;;18.40;58.53;101023.47;4882187;28;122861;-71
2022/09/16 08:06:28;;;;;;;6.85;1.88;;;;;;;18.44;57.93;101024.97;4868633;28;119639;-71
2022/09/16 08:08:58;;;;;;;6.13;1.20;;;;;;;18.48;57.82;101029.13;4870387;28;119032;-71
2022/09/16 08:11:36;;;;;;;4.13;1.23;;;;;;;18.57;57.49;101024.00;4868070;28;124114;-71
2022/09/16 08:14:03;;;;;;;2.97;1.10;;;;;;;18.65;57.26;101027.00;4888961;28;123132;-71
2022/09/16 08:16:30;;;;;;;3.95;1.00;;;;;;;18.71;57.33;101031.88;4870412;28;119220;-71
2022/09/16 08:18:57;;;;;;;3.50;1.00;;;;;;;18.78;56.85;101030.44;4869137;28;118609;-71
2022/09/16 08:21:27;;;;;;;3.85;1.10;;;;;;;18.86;56.61;101040.63;4869013;28;124320;-71
2022/09/16 08:23:55;;;;;;;3.72;0.90;;;;;;;18.93;56.65;101035.63;4870129;28;124765;-71
2022/09/16 08:26:23;;;;;;;3.45;0.90;;;;;;;19.03;56.68;101037.47;4869320;28;119206;-71
2022/09/16 08:28:51;;;;;;;5.53;1.20;;;;;;;19.15;56.28;101046.41;4868782;28;118989;-71
2022/09/16 08:31:37;;;;;;;3.13;0.98;;;;;;;19.23;56.20;101043.09;4866266;28;124053;-72
2022/09/16 08:34:04;;;;;;;2.55;0.73;;;;;;;19.29;55.52;101048.03;4868057;28;124815;-71
2022/09/16 08:36:32;;;;;;;4.03;1.17;;;;;;;19.29;54.91;101047.13;4868125;28;120022;-71
2022/09/16 08:39:00;;;;;;;4.93;1.08;;;;;;;19.23;54.80;101052.03;4869312;28;118835;-72
2022/09/16 08:41:42;;;;;;;5.75;1.10;;;;;;;19.16;54.61;101048.13;4870649;28;124317;-72
2022/09/16 08:44:21;;;;;;;3.45;1.10;;;;;;;19.13;54.63;101053.72;4866887;28;123656;-71
2022/09/16 08:46:52;;;;;;;2.60;1.00;;;;;;;19.11;54.51;101044.94;4866626;28;121073;-71
2022/09/16 08:49:37;;;;;;;5.47;1.20;;;;;;;19.13;54.74;101042.13;4868736;28;119752;-71
2022/09/16 08:52:28;;;;;;;3.75;1.20;;;;;;;19.14;54.40;101033.97;4864754;28;124238;-71
2022/09/16 08:55:00;;;;;;;5.63;1.40;;;;;;;19.22;54.71;101036.88;4869182;28;124018;-71
2022/09/16 08:57:33;;;;;;;6.22;1.10;;;;;;;19.32;54.72;101046.91;4882460;28;119147;-71
2022/09/16 09:00:06;;;;;;;4.05;1.10;;;;;;;19.36;54.21;101043.00;4879494;28;118306;-71
2022/09/16 09:02:54;;;;;;;7.43;1.30;;;;;;;19.33;54.13;101045.94;4870116;28;123883;-71
2022/09/16 09:05:35;;;;;;;5.50;1.17;;;;;;;19.28;53.71;101056.19;4876585;28;123393;-71
2022/09/16 09:08:39;;;;;;;4.22;1.20;;;;;;;19.18;53.53;101051.53;4868350;28;119591;-71
2022/09/16 09:11:15;;;;;;;3.75;1.02;;;;;;;19.08;53.39;101039.81;4868304;28;119241;-72
2022/09/16 09:14:28;;;;;;;7.57;1.00;;;;;;;19.04;53.73;101036.50;4867729;28;124011;-71
2022/09/16 09:17:31;;;;;;;3.25;0.93;;;;;;;19.09;53.86;101040.66;4867175;28;123737;-71
2022/09/16 09:20:45;;;;;;;3.97;1.00;;;;;;;19.22;54.17;101044.94;4865152;28;119125;-72
2022/09/16 09:23:43;;;;;;;3.20;0.95;;;;;;;19.37;53.95;101039.34;4838946;28;117359;-71
2022/09/16 09:26:25;;;;;;;3.33;0.90;;;;;;;19.48;53.43;101047.41;4868284;28;124572;-71
2022/09/16 09:29:21;;;;;;;4.25;1.00;;;;;;;19.57;53.19;101035.94;4865650;28;123947;-71
2022/09/16 09:32:01;;;;;;;4.17;0.73;;;;;;;19.71;52.89;101031.28;4865986;28;119544;-71
2022/09/16 09:34:50;;;;;;;4.78;1.02;;;;;;;19.81;52.42;101033.13;4862705;28;118069;-71
2022/09/16 09:37:51;;;;;;;2.88;0.90;;;;;;;19.89;52.04;101035.22;4867913;28;123695;-71
2022/09/16 09:40:38;;;;;;;2.92;0.95;;;;;;;19.97;51.63;101038.13;4868595;28;123626;-72
2022/09/16 09:43:15;;;;;;;3.67;0.90;;;;;;;20.03;51.25;101037.59;4868829;28;120484;-71
2022/09/16 09:45:55;;;;;;;3.45;0.93;;;;;;;20.08;50.84;101039.06;4883012;28;119000;-71
2022/09/16 09:48:34;;;;;;;4.13;0.98;;;;;;;20.10;50.02;101042.47;4873251;28;124124;-71
2022/09/16 09:51:10;;;;;;;2.25;0.85;;;;;;;20.03;49.73;101037.59;4871529;28;122359;-72
2022/09/16 09:53:48;;;;;;;5.47;1.10;;;;;;;19.94;49.91;101049.09;4868195;28;119543;-73
2022/09/16 09:56:30;;;;;;;3.10;0.68;;;;;;;19.78;49.84;101056.72;4876580;28;118830;-72
2022/09/16 09:59:21;;;;;;;1.70;0.63;;;;;;;19.52;49.75;101054.25;4878535;28;123652;-72
2022/09/16 10:01:56;;;;;;;1.55;0.60;;;;;;;19.16;49.38;101053.50;4885058;28;124343;-74
2022/09/16 10:04:23;;;;;;;2.75;0.52;;;;;;;18.91;49.74;101053.66;4876877;28;119394;-72
2022/09/16 10:06:54;;;;;;;1.17;0.50;;;;;;;18.67;50.30;101058.09;4877526;28;120009;-72
2022/09/16 10:09:22;;;;;;;1.05;0.60;;;;;;;18.48;50.16;101055.94;4875843;28;123815;-72
2022/09/16 10:11:56;;;;;;;2.45;0.60;;;;;;;18.26;50.28;101064.72;4877361;28;124622;-72
2022/09/16 10:14:30;;;;;;;3.05;0.60;;;;;;;18.08;50.77;101064.25;4883518;28;120004;-71
2022/09/16 10:17:12;;;;;;;2.40;0.60;;;;;;;17.91;51.10;101061.94;4869924;28;118683;-72
2022/09/16 10:19:52;;;;;;;2.08;0.50;;;;;;;17.71;51.89;101064.19;4872764;28;124607;-72
2022/09/16 10:22:26;;;;;;;1.67;0.70;;;;;;;17.57;52.16;101063.47;4869021;28;124234;-72
2022/09/16 10:24:56;;;;;;;2.95;0.80;;;;;;;17.45;52.58;101062.53;4871207;28;119100;-71
2022/09/16 10:27:26;;;;;;;3.50;0.90;;;;;;;17.35;52.58;101077.50;4874924;28;118903;-72
2022/09/16 10:30:42;;;;;;;2.30;0.70;;;;;;;17.21;53.18;101076.66;4876352;28;123825;-73
2022/09/16 10:33:27;;;;;;;2.55;0.63;;;;;;;17.13;53.36;101073.66;4860955;28;124734;-72
2022/09/16 10:35:56;;;;;;;;;;;;;;;17.05;53.42;101070.66;4868414;28;121000;-72
2022/09/16 10:38:33;;;;;;;1.98;0.70;;;;;;;17.03;54.06;101062.72;4871087;28;119820;-72
2022/09/16 10:41:07;;;;;;;1.48;0.70;;;;;;;17.08;54.74;101065.06;4869446;28;124523;-71
2022/09/16 10:43:38;;;;;;;1.45;0.70;;;;;;;17.15;54.90;101061.03;4869106;28;123455;-73
2022/09/16 10:46:06;;;;;;;3.17;0.90;;;;;;;17.19;55.19;101057.16;4875374;28;118920;-72
2022/09/16 10:48:35;;;;;;;2.65;0.93;;;;;;;17.27;55.25;101060.19;4871055;28;118888;-73
2022/09/16 10:51:05;;;;;;;3.13;0.70;;;;;;;17.37;55.60;101054.19;4871361;28;123876;-72
2022/09/16 10:53:37;;;;;;;1.80;0.90;;;;;;;17.49;55.86;101048.78;4872586;28;123787;-72
2022/09/16 10:56:18;;;;;;;3.53;0.90;;;;;;;17.64;55.69;101049.53;4869373;28;119846;-72
2022/09/16 10:58:45;;;;;;;2.95;1.05;;;;;;;17.79;55.66;101044.03;4870724;28;118944;-73
2022/09/16 11:01:36;;;;;;;2.72;0.73;;;;;;;17.92;55.75;101039.53;4870109;28;124783;-72
2022/09/16 11:04:28;;;;;;;3.78;0.90;;;;;;;18.05;55.53;101040.34;4868521;28;124569;-72
2022/09/16 11:07:11;;;;;;;3.08;0.90;;;;;;;18.20;55.09;101042.88;4880055;28;118363;-72
2022/09/16 11:09:51;;;;;;;3.75;0.73;;;;;;;18.35;54.67;101041.75;4870791;28;119281;-72
2022/09/16 11:12:55;;;;;;;5.53;0.93;;;;;;;18.44;53.98;101041.06;4867498;28;123996;-72
2022/09/16 11:15:37;;;;;;;1.65;0.70;;;;;;;18.48;53.67;101037.16;4867594;28;124331;-71
2022/09/16 11:18:43;;;;;;;2.90;0.80;;;;;;;18.56;53.71;101051.81;4866646;28;119188;-71
2022/09/16 11:21:28;;;;;;;6.03;0.88;;;;;;;18.67;53.34;101044.66;4872079;28;119703;-71
2022/09/16 11:24:06;;;;;;;2.35;0.90;;;;;;;18.78;53.39;101043.84;4866651;28;124532;-71
2022/09/16 11:26:48;;;;;;;1.50;0.60;;;;;;;18.92;53.39;101050.03;4869837;28;123360;-72
2022/09/16 11:29:35;;;;;;;1.70;0.50;;;;;;;19.06;52.79;101047.09;4863317;28;120341;-72
2022/09/16 11:32:27;;;;;;;3.65;0.90;;;;;;;19.16;52.16;101037.38;4867598;28;120329;-71
2022/09/16 11:35:16;;;;;;;3.03;0.82;;;;;;;19.28;52.05;101056.19;4866824;28;123962;-72
2022/09/16 11:37:55;;;;;;;3.47;0.65;;;;;;;19.41;51.75;101051.56;4883049;28;124437;-72
2022/09/16 11:40:33;;;;;;;4.57;0.95;;;;;;;19.53;50.89;101055.94;4869261;28;119241;-72
2022/09/16 11:43:38;;;;;;;2.17;0.70;;;;;;;19.64;50.72;101052.41;4873234;28;119162;-74
2022/09/16 11:46:24;;;;;;;2.53;0.80;;;;;;;19.79;50.78;101044.97;4875130;28;123794;-72
2022/09/16 11:49:09;;;;;;;2.05;0.60;;;;;;;19.95;50.46;101050.84;4874243;28;124562;-71
2022/09/16 11:52:24;;;;;;;3.37;0.90;;;;;;;20.01;49.77;101055.69;4866369;28;119018;-72